Time;durP1;ratioP1;P1;durP2;ratioP2;P2;SDS_P1;SDS_P2;PMS_P1;PMS_P2;Temp;Humidity;BMP_temperature;BMP_pressure;BME280_temperature;BME280_humidity;BME280_pressure;Samples;Min_cycle;Max_cycle;Signal;HPM_P1;HPM_P2
2023/12/15 00:01:42;;;;;;;3.40;2.50;;;7.90;96.50;;;;;;6121628;23;20013;-66
2023/12/15 00:04:08;;;;;;;5.20;2.80;;;7.90;96.60;;;;;;6121194;23;20022;-66
2023/12/15 00:06:33;;;;;;;4.28;2.67;;;7.90;96.60;;;;;;6121987;23;20036;-66
2023/12/15 00:08:59;;;;;;;6.45;2.60;;;7.90;96.60;;;;;;6120540;23;20001;-65
2023/12/15 00:11:24;;;;;;;4.80;2.30;;;7.90;96.70;;;;;;6122736;23;20001;-65
2023/12/15 00:13:50;;;;;;;3.60;2.10;;;7.90;96.70;;;;;;6121213;23;20013;-64
2023/12/15 00:16:15;;;;;;;2.60;1.90;;;7.90;96.70;;;;;;6122464;23;20006;-66
2023/12/15 00:18:41;;;;;;;3.13;1.75;;;8.00;96.80;;;;;;6120588;23;20081;-66
2023/12/15 00:21:07;;;;;;;3.83;2.60;;;8.00;96.80;;;;;;6121986;23;20057;-64
2023/12/15 00:23:33;;;;;;;3.20;2.33;;;8.00;96.70;;;;;;6121793;23;20006;-66
2023/12/15 00:25:59;;;;;;;3.53;2.20;;;8.00;96.70;;;;;;6119550;23;20081;-65
2023/12/15 00:28:25;;;;;;;3.40;2.30;;;8.00;96.70;;;;;;6122222;23;20390;-65
2023/12/15 00:30:50;;;;;;;3.95;2.47;;;8.00;96.70;;;;;;6122131;23;20060;-66
2023/12/15 00:33:16;;;;;;;2.72;1.95;;;8.00;96.70;;;;;;6122294;23;20455;-67
2023/12/15 00:35:42;;;;;;;3.15;2.10;;;8.00;96.70;;;;;;6121936;23;20435;-66
2023/12/15 00:38:07;;;;;;;2.80;1.98;;;8.00;96.80;;;;;;6122892;23;20040;-66
2023/12/15 00:40:33;;;;;;;4.13;2.22;;;8.00;97.10;;;;;;6120814;23;20399;-66
2023/12/15 00:42:58;;;;;;;3.75;2.35;;;8.00;96.80;;;;;;6120696;23;20073;-67
2023/12/15 00:45:24;;;;;;;4.03;2.20;;;8.00;96.80;;;;;;6121658;23;20007;-65
2023/12/15 00:47:49;;;;;;;3.35;2.00;;;8.00;96.90;;;;;;6096409;23;20002;-65
2023/12/15 00:50:15;;;;;;;5.00;2.55;;;8.00;97.00;;;;;;6121129;23;20024;-65
2023/12/15 00:52:41;;;;;;;3.17;2.30;;;8.00;96.90;;;;;;6121567;23;20080;-66
2023/12/15 00:55:06;;;;;;;4.50;2.78;;;8.00;97.00;;;;;;6122239;23;20021;-66
2023/12/15 00:57:32;;;;;;;4.53;2.55;;;8.00;97.00;;;;;;6120991;23;20006;-64
2023/12/15 00:59:58;;;;;;;4.13;2.70;;;8.00;97.00;;;;;;6121131;23;20013;-67
2023/12/15 01:02:23;;;;;;;2.60;2.03;;;8.00;97.00;;;;;;6121861;23;20397;-66
2023/12/15 01:04:49;;;;;;;5.68;2.97;;;8.00;97.10;;;;;;6121709;23;20786;-67
2023/12/15 01:07:14;;;;;;;5.10;3.05;;;8.10;97.10;;;;;;6121618;23;20343;-66
2023/12/15 01:09:40;;;;;;;4.13;2.55;;;8.00;97.10;;;;;;6119902;23;20759;-67
2023/12/15 01:12:05;;;;;;;5.45;3.22;;;8.10;97.10;;;;;;6121838;23;20324;-66
2023/12/15 01:14:31;;;;;;;5.07;2.90;;;8.10;97.10;;;;;;6095897;23;20482;-66
2023/12/15 01:16:57;;;;;;;6.93;3.58;;;8.10;97.10;;;;;;6120698;23;20082;-66
2023/12/15 01:19:22;;;;;;;5.15;3.28;;;8.10;97.10;;;;;;6121251;23;20009;-66
2023/12/15 01:21:48;;;;;;;7.32;4.00;;;8.10;97.20;;;;;;6120682;23;20006;-66
2023/12/15 01:24:13;;;;;;;5.45;3.20;;;8.10;97.20;;;;;;6121345;23;20006;-66
2023/12/15 01:26:39;;;;;;;6.13;3.50;;;8.10;97.20;;;;;;6121240;23;20005;-66
2023/12/15 01:29:05;;;;;;;6.10;3.50;;;8.10;97.20;;;;;;6119873;23;20006;-65
2023/12/15 01:31:31;;;;;;;5.50;3.08;;;8.10;97.30;;;;;;6121136;23;20379;-64
2023/12/15 01:33:57;;;;;;;6.20;3.60;;;8.10;97.30;;;;;;6121156;23;20320;-65
2023/12/15 01:36:22;;;;;;;4.38;2.67;;;8.10;97.40;;;;;;6121418;23;20013;-65
2023/12/15 01:38:48;;;;;;;7.82;4.53;;;8.10;97.40;;;;;;6120661;23;20026;-64
2023/12/15 01:41:13;;;;;;;7.50;4.18;;;8.10;97.40;;;;;;6120340;23;20500;-66
2023/12/15 01:43:39;;;;;;;4.45;3.10;;;8.10;97.50;;;;;;6120878;23;19998;-66
2023/12/15 01:46:05;;;;;;;12.93;6.47;;;8.10;97.60;;;;;;6121709;23;20005;-65
2023/12/15 01:48:30;;;;;;;9.13;4.82;;;8.10;97.60;;;;;;6121252;23;20002;-65
2023/12/15 01:50:56;;;;;;;6.57;4.00;;;8.20;97.60;;;;;;6121107;23;20006;-65
2023/12/15 01:53:22;;;;;;;5.50;3.05;;;8.10;97.50;;;;;;6120072;23;20013;-67
2023/12/15 01:55:48;;;;;;;5.22;2.85;;;8.20;97.50;;;;;;6095362;23;20024;-65
2023/12/15 01:58:14;;;;;;;4.70;2.70;;;8.20;97.60;;;;;;6120849;23;20014;-64
2023/12/15 02:00:39;;;;;;;5.78;3.55;;;8.20;97.60;;;;;;6120812;23;20080;-65
2023/12/15 02:03:05;;;;;;;6.57;3.50;;;8.20;97.50;;;;;;6095065;23;20009;-65
2023/12/15 02:05:31;;;;;;;7.65;4.38;;;8.20;97.60;;;;;;6121435;23;20002;-67
2023/12/15 02:07:56;;;;;;;6.85;3.78;;;8.20;97.60;;;;;;6121343;23;20002;-65
2023/12/15 02:10:22;;;;;;;5.45;3.17;;;8.30;97.60;;;;;;6119998;23;20107;-66
2023/12/15 02:12:47;;;;;;;4.85;3.13;;;8.30;97.60;;;;;;6120924;23;20072;-67
2023/12/15 02:15:13;;;;;;;3.72;2.53;;;8.30;97.60;;;;;;6120556;23;20536;-66
2023/12/15 02:17:39;;;;;;;5.20;3.20;;;8.30;97.50;;;;;;6120567;23;19998;-63
2023/12/15 02:20:06;;;;;;;4.43;2.80;;;8.40;97.60;;;;;;6121585;23;20390;-65
2023/12/15 02:22:31;;;;;;;5.85;3.17;;;8.40;97.60;;;;;;6121758;23;20010;-65
2023/12/15 02:24:57;;;;;;;5.97;3.53;;;8.40;97.60;;;;;;6121342;23;20068;-65
2023/12/15 02:27:22;;;;;;;6.60;3.45;;;8.40;97.60;;;;;;6121361;23;20021;-64
2023/12/15 02:29:48;;;;;;;5.28;3.40;;;8.40;97.50;;;;;;6119763;23;20069;-65
2023/12/15 02:32:13;;;;;;;7.20;3.08;;;8.40;97.50;;;;;;6121188;23;20040;-65
2023/12/15 02:34:39;;;;;;;5.57;3.30;;;8.40;97.60;;;;;;6119551;23;20345;-63
2023/12/15 02:37:05;;;;;;;9.30;4.60;;;8.40;97.90;;;;;;6120841;23;20085;-64
2023/12/15 02:39:31;;;;;;;6.50;3.42;;;8.50;97.60;;;;;;6120690;23;20053;-65
2023/12/15 02:41:57;;;;;;;5.85;3.25;;;8.40;97.60;;;;;;6120730;23;20002;-64
2023/12/15 02:44:22;;;;;;;6.68;3.50;;;8.40;97.70;;;;;;6120861;23;20006;-64
2023/12/15 02:46:48;;;;;;;5.60;3.00;;;8.40;97.70;;;;;;6120682;23;20060;-65
2023/12/15 02:49:14;;;;;;;6.88;3.97;;;8.40;97.80;;;;;;6120587;23;20431;-65
2023/12/15 02:51:40;;;;;;;6.95;3.90;;;8.40;97.80;;;;;;6120702;23;20431;-65
2023/12/15 02:54:05;;;;;;;9.82;4.78;;;8.40;98.10;;;;;;6120051;23;20002;-64
2023/12/15 02:56:31;;;;;;;7.90;4.38;;;8.40;97.90;;;;;;6120967;23;20213;-64
2023/12/15 02:58:56;;;;;;;6.63;3.65;;;8.40;98.00;;;;;;6119852;23;20002;-64
2023/12/15 03:01:22;;;;;;;8.73;5.00;;;8.40;98.00;;;;;;6120558;23;20009;-63
2023/12/15 03:03:48;;;;;;;7.07;4.05;;;8.40;97.90;;;;;;6120485;23;20026;-64
2023/12/15 03:06:13;;;;;;;6.25;3.30;;;8.40;98.00;;;;;;6121290;23;20026;-65
2023/12/15 03:08:39;;;;;;;7.32;3.60;;;8.50;97.90;;;;;;6120623;23;19998;-65
2023/12/15 03:11:04;;;;;;;7.72;3.50;;;8.50;97.90;;;;;;6118915;23;20009;-65
2023/12/15 03:13:30;;;;;;;7.38;3.65;;;8.50;97.80;;;;;;6120208;23;20037;-65
2023/12/15 03:16:11;;;;;;;7.10;3.47;;;8.50;97.80;;;;;;6120747;23;20009;-64
2023/12/15 03:18:37;;;;;;;8.50;3.83;;;8.50;97.90;;;;;;6119987;23;20330;-65
2023/12/15 03:21:03;;;;;;;5.53;3.15;;;8.50;97.90;;;;;;6120514;23;20006;-65
2023/12/15 03:23:29;;;;;;;6.30;3.10;;;8.50;97.90;;;;;;6120700;23;20061;-65
2023/12/15 03:25:54;;;;;;;9.63;4.32;;;8.60;97.90;;;;;;6120546;23;20029;-64
2023/12/15 03:28:20;;;;;;;7.28;3.72;;;8.60;97.90;;;;;;6120130;23;20466;-65
2023/12/15 03:30:46;;;;;;;7.40;3.47;;;8.60;97.90;;;;;;6119051;23;20585;-65
2023/12/15 03:33:11;;;;;;;6.20;3.47;;;8.60;97.90;;;;;;6119910;23;20105;-65
2023/12/15 03:35:37;;;;;;;5.80;3.08;;;8.60;98.00;;;;;;6121981;23;19998;-64
2023/12/15 03:38:04;;;;;;;7.22;3.50;;;8.60;98.00;;;;;;6121340;23;20030;-64
2023/12/15 03:40:30;;;;;;;9.63;5.25;;;8.60;98.00;;;;;;6120777;23;20010;-66
2023/12/15 03:42:55;;;;;;;6.57;4.18;;;8.60;98.00;;;;;;6120187;23;20073;-65
2023/12/15 03:45:21;;;;;;;7.18;3.50;;;8.60;98.10;;;;;;6120426;23;20009;-65
2023/12/15 03:47:47;;;;;;;6.13;3.00;;;8.60;98.10;;;;;;6118926;23;20002;-64
2023/12/15 03:50:12;;;;;;;7.38;3.67;;;8.60;98.00;;;;;;6119814;23;20466;-66
2023/12/15 03:52:38;;;;;;;6.93;3.55;;;8.60;98.10;;;;;;6123223;23;20014;-65
2023/12/15 03:55:04;;;;;;;5.25;2.70;;;8.60;98.10;;;;;;6097729;23;20013;-65
2023/12/15 03:57:29;;;;;;;8.50;4.28;;;8.60;98.10;;;;;;6122779;23;20074;-65
2023/12/15 03:59:55;;;;;;;6.65;3.50;;;8.70;98.10;;;;;;6095496;23;20033;-63
2023/12/15 04:02:20;;;;;;;7.65;3.67;;;8.60;98.10;;;;;;6122341;23;20029;-66
2023/12/15 04:04:46;;;;;;;6.75;3.70;;;8.70;98.10;;;;;;6121673;23;20006;-65
2023/12/15 04:07:12;;;;;;;5.20;3.13;;;8.70;98.10;;;;;;6095046;23;20449;-65
2023/12/15 04:09:38;;;;;;;7.78;3.72;;;8.70;98.10;;;;;;6121522;23;20331;-64
2023/12/15 04:12:04;;;;;;;6.78;3.47;;;8.80;98.10;;;;;;6122207;23;20002;-65
2023/12/15 04:14:31;;;;;;;6.18;3.40;;;8.80;98.10;;;;;;6122401;23;20041;-64
2023/12/15 04:16:57;;;;;;;5.13;2.67;;;8.80;98.20;;;;;;6121448;23;20312;-65
2023/12/15 04:19:22;;;;;;;5.78;3.00;;;8.80;98.20;;;;;;6121430;23;20009;-65
2023/12/15 04:21:48;;;;;;;6.00;3.13;;;8.80;98.10;;;;;;6122111;23;20315;-66
2023/12/15 04:24:14;;;;;;;10.52;4.50;;;8.90;98.20;;;;;;6121121;23;20367;-66
2023/12/15 04:26:40;;;;;;;7.57;4.18;;;8.90;98.10;;;;;;6121990;23;20487;-64
2023/12/15 04:29:05;;;;;;;6.85;3.22;;;8.80;98.10;;;;;;6120540;23;20033;-65
2023/12/15 04:31:31;;;;;;;7.63;3.75;;;8.90;98.20;;;;;;6122353;23;20065;-65
2023/12/15 04:33:56;;;;;;;8.32;3.80;;;8.90;98.10;;;;;;6121809;23;20009;-66
2023/12/15 04:36:22;;;;;;;6.82;3.33;;;8.90;98.10;;;;;;6096189;23;20014;-65
2023/12/15 04:38:48;;;;;;;6.30;3.50;;;8.90;98.20;;;;;;6121351;23;20077;-64
2023/12/15 04:41:22;;;;;;;7.43;3.20;;;8.90;98.10;;;;;;6121707;23;20005;-64
2023/12/15 04:43:48;;;;;;;6.00;2.97;;;8.90;98.20;;;;;;6119810;23;20430;-65
2023/12/15 04:46:27;;;;;;;8.30;3.33;;;8.90;98.20;;;;;;6096172;23;20033;-65
2023/12/15 04:48:55;;;;;;;7.72;3.58;;;8.90;98.20;;;;;;6121030;23;20010;-63
2023/12/15 04:51:21;;;;;;;7.65;3.80;;;8.90;98.20;;;;;;6121900;23;20129;-66
2023/12/15 04:53:48;;;;;;;6.03;3.30;;;8.90;98.30;;;;;;6121438;23;20695;-66
2023/12/15 04:56:14;;;;;;;6.80;3.28;;;8.90;98.30;;;;;;6121798;23;20061;-65
2023/12/15 04:58:39;;;;;;;7.43;3.70;;;8.90;98.30;;;;;;6121110;23;20006;-65
2023/12/15 05:01:09;;;;;;;7.40;3.70;;;8.90;98.40;;;;;;6120349;23;20025;-66
2023/12/15 05:03:34;;;;;;;6.93;3.10;;;8.90;98.40;;;;;;6121996;23;20002;-65
2023/12/15 05:06:00;;;;;;;10.25;4.90;;;9.00;98.40;;;;;;6120360;23;20339;-65
2023/12/15 05:08:25;;;;;;;6.97;3.67;;;9.00;98.30;;;;;;6121079;23;20584;-64
2023/12/15 05:10:51;;;;;;;8.35;3.42;;;9.00;98.30;;;;;;6094206;23;20114;-66
2023/12/15 05:13:16;;;;;;;7.00;3.65;;;9.00;98.30;;;;;;6121076;23;20002;-65
2023/12/15 05:15:42;;;;;;;8.38;3.92;;;9.00;98.30;;;;;;6121351;23;20005;-65
2023/12/15 05:18:07;;;;;;;7.53;3.88;;;9.00;98.30;;;;;;6120782;23;20053;-65
2023/12/15 05:20:38;;;;;;;7.50;3.90;;;9.00;98.30;;;;;;6120250;23;20010;-64
2023/12/15 05:23:04;;;;;;;6.43;3.17;;;9.00;98.40;;;;;;6121678;23;20451;-66
2023/12/15 05:25:30;;;;;;;5.40;2.72;;;9.00;98.40;;;;;;6121238;23;19998;-66
2023/12/15 05:27:56;;;;;;;5.05;3.10;;;9.00;98.40;;;;;;6120190;23;20009;-64
2023/12/15 05:30:22;;;;;;;5.80;3.03;;;9.00;98.40;;;;;;6121248;23;20049;-63
2023/12/15 05:32:48;;;;;;;9.73;4.68;;;9.00;98.50;;;;;;6121028;23;20005;-65
2023/12/15 05:35:14;;;;;;;7.68;4.10;;;9.00;98.40;;;;;;6121130;23;20327;-64
2023/12/15 05:37:40;;;;;;;6.82;3.63;;;9.00;98.50;;;;;;6120283;23;19998;-64
2023/12/15 05:40:09;;;;;;;5.90;3.25;;;9.00;98.50;;;;;;6119606;23;20009;-65
2023/12/15 05:42:35;;;;;;;6.03;3.25;;;9.00;98.50;;;;;;6121514;23;20407;-65
2023/12/15 05:45:01;;;;;;;5.63;2.85;;;9.00;98.60;;;;;;6121091;23;20008;-64
2023/12/15 05:47:27;;;;;;;5.55;2.78;;;9.00;98.60;;;;;;6121556;23;20001;-64
2023/12/15 05:49:53;;;;;;;4.90;2.95;;;9.10;98.50;;;;;;6120473;23;20002;-63
2023/12/15 05:52:19;;;;;;;5.13;3.03;;;9.10;98.60;;;;;;6120792;23;20010;-64
2023/12/15 05:54:44;;;;;;;5.90;3.08;;;9.10;98.60;;;;;;6120523;23;20395;-63
2023/12/15 05:57:10;;;;;;;5.70;3.20;;;9.10;98.60;;;;;;6120304;23;20073;-64
2023/12/15 05:59:35;;;;;;;6.68;3.55;;;9.20;98.50;;;;;;6120602;23;20076;-64
2023/12/15 06:02:01;;;;;;;6.97;3.40;;;9.10;98.70;;;;;;6120365;23;20009;-64
2023/12/15 06:04:27;;;;;;;6.25;3.30;;;9.10;98.50;;;;;;6119589;23;20097;-65
2023/12/15 06:06:52;;;;;;;5.85;2.97;;;9.10;98.40;;;;;;6120402;23;20021;-66
2023/12/15 06:09:18;;;;;;;7.30;3.88;;;9.20;98.50;;;;;;6120238;23;20427;-65
2023/12/15 06:11:44;;;;;;;6.35;3.35;;;9.20;98.50;;;;;;6094787;23;20025;-65
2023/12/15 06:14:10;;;;;;;7.65;3.80;;;9.20;98.40;;;;;;6119452;23;20002;-64
2023/12/15 06:16:35;;;;;;;5.32;3.33;;;9.20;98.40;;;;;;6121620;23;20038;-64
2023/12/15 06:19:02;;;;;;;6.57;3.30;;;9.20;98.50;;;;;;6120179;23;20363;-65
2023/12/15 06:21:28;;;;;;;8.32;5.00;;;9.20;98.40;;;;;;6094992;23;20017;-65
2023/12/15 06:23:55;;;;;;;8.15;4.20;;;9.20;98.50;;;;;;6118447;23;20411;-65
2023/12/15 06:26:21;;;;;;;7.95;3.90;;;9.20;98.50;;;;;;6120886;23;19998;-64
2023/12/15 06:28:47;;;;;;;7.25;3.88;;;9.20;98.50;;;;;;6119935;23;20014;-65
2023/12/15 06:31:13;;;;;;;7.00;3.55;;;9.20;98.50;;;;;;6116599;23;20006;-65
2023/12/15 06:33:39;;;;;;;10.45;5.65;;;9.20;98.40;;;;;;6093906;23;20060;-65
2023/12/15 06:36:05;;;;;;;7.82;4.03;;;9.20;98.50;;;;;;6120355;23;20002;-65
2023/12/15 06:38:31;;;;;;;6.65;3.58;;;9.20;98.50;;;;;;6120651;23;20002;-65
2023/12/15 06:40:57;;;;;;;6.60;3.42;;;9.20;98.50;;;;;;6119677;23;20347;-65
2023/12/15 06:43:23;;;;;;;7.22;3.90;;;9.20;98.50;;;;;;6120596;23;20005;-65
2023/12/15 06:45:48;;;;;;;9.57;4.45;;;9.20;98.50;;;;;;6121016;23;20049;-65
2023/12/15 06:48:14;;;;;;;10.20;4.47;;;9.20;98.60;;;;;;6120541;23;20394;-65
2023/12/15 06:50:39;;;;;;;7.47;4.22;;;9.10;98.70;;;;;;6116922;23;20006;-65
2023/12/15 06:53:05;;;;;;;7.40;4.22;;;9.20;98.80;;;;;;6120969;23;20030;-65
2023/12/15 06:55:31;;;;;;;8.27;4.43;;;9.20;98.70;;;;;;6122004;23;20006;-65
2023/12/15 06:57:57;;;;;;;12.93;6.07;;;9.20;98.70;;;;;;6121269;23;20006;-65
2023/12/15 07:00:22;;;;;;;12.80;5.88;;;9.20;98.70;;;;;;6119630;23;20009;-63
2023/12/15 07:02:48;;;;;;;7.63;3.92;;;9.20;98.70;;;;;;6117639;23;20056;-64
2023/12/15 07:05:14;;;;;;;8.50;3.53;;;9.20;98.70;;;;;;6119511;23;20002;-64
2023/12/15 07:07:39;;;;;;;8.25;4.10;;;9.20;98.70;;;;;;6118537;23;20006;-65
2023/12/15 07:10:05;;;;;;;6.93;3.83;;;9.20;98.70;;;;;;6119723;23;20005;-65
2023/12/15 07:12:31;;;;;;;5.90;3.85;;;9.30;98.70;;;;;;6120416;23;20012;-65
2023/12/15 07:14:57;;;;;;;6.30;2.88;;;9.30;98.70;;;;;;6120601;23;20026;-64
2023/12/15 07:17:22;;;;;;;7.47;3.45;;;9.30;98.70;;;;;;6119692;23;20013;-64
2023/12/15 07:19:48;;;;;;;8.75;4.05;;;9.30;98.60;;;;;;6118218;23;20006;-66
2023/12/15 07:22:13;;;;;;;5.50;3.00;;;9.30;98.70;;;;;;6118992;23;20029;-65
2023/12/15 07:24:42;;;;;;;6.80;3.42;;;9.30;98.70;;;;;;6120495;23;20443;-64
2023/12/15 07:27:07;;;;;;;11.70;6.05;;;9.30;98.60;;;;;;6121853;23;20009;-65
2023/12/15 07:29:33;;;;;;;8.52;4.53;;;9.30;98.60;;;;;;6122431;23;20088;-63
2023/12/15 07:31:58;;;;;;;8.02;4.07;;;9.30;98.60;;;;;;6122294;23;20012;-64
2023/12/15 07:34:24;;;;;;;9.70;4.00;;;9.30;98.70;;;;;;6122534;23;20035;-65
2023/12/15 07:36:50;;;;;;;5.72;3.15;;;9.30;98.60;;;;;;6122793;23;20037;-66
2023/12/15 07:39:21;;;;;;;5.72;3.28;;;9.30;98.60;;;;;;6121524;23;20296;-65
2023/12/15 07:41:50;;;;;;;5.93;3.30;;;9.30;98.60;;;;;;6121806;23;20016;-64
2023/12/15 07:44:16;;;;;;;5.88;3.25;;;9.30;98.70;;;;;;6121638;23;20700;-64
2023/12/15 07:46:42;;;;;;;8.00;4.22;;;9.40;98.70;;;;;;6122628;23;20480;-65
2023/12/15 07:49:11;;;;;;;6.57;3.03;;;9.40;98.70;;;;;;6121955;23;20030;-65
2023/12/15 07:51:37;;;;;;;7.93;3.90;;;9.40;98.70;;;;;;6121596;23;20013;-66
2023/12/15 07:54:02;;;;;;;8.80;3.88;;;9.40;98.70;;;;;;6122383;23;20010;-65
2023/12/15 07:56:29;;;;;;;6.75;3.03;;;9.30;98.70;;;;;;6121830;23;20439;-66
2023/12/15 07:58:56;;;;;;;6.30;3.20;;;9.40;98.80;;;;;;6117773;23;20671;-64
2023/12/15 08:01:23;;;;;;;5.18;2.70;;;9.40;98.80;;;;;;6120311;23;20141;-64
2023/12/15 08:03:50;;;;;;;6.90;3.28;;;9.40;98.80;;;;;;6118498;23;20009;-66
2023/12/15 08:06:16;;;;;;;5.68;3.40;;;9.40;98.80;;;;;;6121554;23;20719;-65
2023/12/15 08:08:43;;;;;;;5.80;3.05;;;9.40;98.80;;;;;;6121664;23;20089;-65
2023/12/15 08:11:13;;;;;;;5.80;2.95;;;9.40;98.80;;;;;;6121640;23;20528;-66
2023/12/15 08:13:39;;;;;;;8.25;4.03;;;9.50;98.80;;;;;;6121421;23;20006;-65
2023/12/15 08:16:06;;;;;;;5.47;3.55;;;9.50;98.80;;;;;;6121863;23;20037;-65
2023/12/15 08:18:32;;;;;;;7.65;3.10;;;9.40;98.80;;;;;;6121347;23;20010;-64
2023/12/15 08:20:58;;;;;;;5.78;2.72;;;9.50;98.80;;;;;;6119847;23;20022;-65
2023/12/15 08:23:24;;;;;;;7.32;3.38;;;9.50;99.10;;;;;;6120823;23;19998;-66
2023/12/15 08:25:50;;;;;;;7.53;3.38;;;9.60;98.80;;;;;;6120740;23;20009;-64
2023/12/15 08:28:15;;;;;;;6.00;3.20;;;9.60;99.00;;;;;;6121465;23;20020;-65
2023/12/15 08:30:41;;;;;;;7.78;3.95;;;9.60;98.70;;;;;;6120442;23;20067;-65
2023/12/15 08:33:07;;;;;;;4.80;2.78;;;9.60;98.70;;;;;;6121316;23;20041;-65
2023/12/15 08:35:32;;;;;;;5.40;2.95;;;9.60;98.80;;;;;;6121847;23;20877;-65
2023/12/15 08:37:58;;;;;;;6.10;2.80;;;9.60;98.70;;;;;;6120209;23;20439;-64
2023/12/15 08:40:24;;;;;;;7.20;3.08;;;9.70;98.70;;;;;;6120214;23;20009;-65
2023/12/15 08:42:50;;;;;;;6.60;2.95;;;9.70;99.00;;;;;;6120424;23;20010;-65
2023/12/15 08:45:16;;;;;;;7.03;3.42;;;9.70;98.70;;;;;;6121838;23;20029;-66
2023/12/15 08:47:41;;;;;;;6.07;3.17;;;9.70;98.70;;;;;;6121065;23;19994;-65
2023/12/15 08:50:07;;;;;;;4.32;2.78;;;9.70;98.60;;;;;;6094304;23;20002;-64
2023/12/15 08:52:33;;;;;;;7.00;3.15;;;9.70;98.60;;;;;;6121681;23;20021;-65
2023/12/15 08:54:58;;;;;;;5.22;2.78;;;9.70;98.70;;;;;;6120645;23;20355;-64
2023/12/15 08:57:24;;;;;;;4.85;2.85;;;9.60;98.70;;;;;;6120544;23;20474;-67
2023/12/15 08:59:50;;;;;;;5.10;2.65;;;9.70;98.70;;;;;;6121013;23;20070;-66
2023/12/15 09:02:15;;;;;;;5.25;2.75;;;9.70;98.80;;;;;;6121676;23;20085;-66
2023/12/15 09:04:41;;;;;;;6.07;3.45;;;9.70;98.80;;;;;;6121429;23;20106;-67
2023/12/15 09:07:07;;;;;;;4.47;2.70;;;9.70;98.80;;;;;;6121358;23;20149;-66
2023/12/15 09:09:34;;;;;;;5.25;2.80;;;9.80;98.80;;;;;;6120928;23;20002;-65
2023/12/15 09:12:00;;;;;;;4.57;2.60;;;9.80;98.80;;;;;;6120839;23;20006;-66
2023/12/15 09:14:26;;;;;;;4.32;2.45;;;9.80;98.70;;;;;;6119947;23;20006;-68
2023/12/15 09:16:52;;;;;;;6.65;2.85;;;9.90;98.70;;;;;;6119740;23;20013;-67
2023/12/15 09:19:18;;;;;;;4.82;2.75;;;9.90;98.60;;;;;;6120684;23;20002;-63
2023/12/15 09:21:44;;;;;;;4.43;2.33;;;9.90;98.60;;;;;;6095389;23;20041;-66
2023/12/15 09:24:09;;;;;;;5.38;2.53;;;9.90;98.60;;;;;;6119567;23;20006;-66
2023/12/15 09:26:38;;;;;;;5.07;2.50;;;9.90;98.60;;;;;;6121120;23;19998;-65
2023/12/15 09:29:03;;;;;;;4.72;2.30;;;9.90;98.60;;;;;;6119609;23;20014;-66
2023/12/15 09:31:29;;;;;;;4.18;2.10;;;9.90;98.60;;;;;;6120849;23;20060;-66
2023/12/15 09:33:54;;;;;;;3.90;2.55;;;10.00;98.70;;;;;;6119201;23;20010;-67
2023/12/15 09:36:21;;;;;;;3.38;2.08;;;10.00;98.60;;;;;;6121038;23;20032;-66
2023/12/15 09:38:47;;;;;;;4.43;1.95;;;10.00;98.50;;;;;;6095328;23;20514;-66
2023/12/15 09:41:13;;;;;;;4.78;2.53;;;10.10;98.50;;;;;;6120532;23;20017;-67
2023/12/15 09:43:38;;;;;;;4.25;2.38;;;10.10;98.50;;;;;;6120341;23;20327;-67
2023/12/15 09:46:05;;;;;;;4.65;2.50;;;10.10;98.50;;;;;;6120884;23;20006;-66
2023/12/15 09:48:32;;;;;;;5.05;2.40;;;10.10;98.50;;;;;;6120416;23;20002;-66
2023/12/15 09:51:03;;;;;;;4.57;2.47;;;10.20;98.40;;;;;;6120428;23;20014;-66
2023/12/15 09:53:34;;;;;;;4.35;2.80;;;10.20;98.40;;;;;;6117220;23;20030;-66
2023/12/15 09:56:00;;;;;;;3.80;1.92;;;10.20;98.40;;;;;;6119371;23;20450;-66
2023/12/15 09:58:25;;;;;;;4.75;2.17;;;10.20;98.30;;;;;;6120098;23;20001;-67
2023/12/15 10:00:51;;;;;;;4.20;2.13;;;10.20;98.30;;;;;;6118693;23;20006;-66
2023/12/15 10:03:16;;;;;;;5.35;2.20;;;10.30;98.30;;;;;;6121086;23;20037;-65
2023/12/15 10:05:42;;;;;;;3.20;1.90;;;10.30;98.20;;;;;;6094782;23;20010;-64
2023/12/15 10:08:08;;;;;;;4.90;2.35;;;10.30;98.20;;;;;;6120995;23;20001;-65
2023/12/15 10:10:34;;;;;;;4.43;2.55;;;10.40;98.20;;;;;;6119394;23;20486;-65
2023/12/15 10:13:01;;;;;;;3.72;2.30;;;10.40;98.50;;;;;;6119859;23;20363;-65
2023/12/15 10:15:27;;;;;;;3.53;2.35;;;10.40;98.20;;;;;;6120750;23;20005;-66
2023/12/15 10:17:54;;;;;;;3.80;2.03;;;10.40;98.20;;;;;;6120084;23;20016;-66
2023/12/15 10:20:19;;;;;;;5.03;2.28;;;10.40;98.10;;;;;;6118615;23;20034;-65
2023/12/15 10:22:46;;;;;;;3.85;2.17;;;10.40;98.20;;;;;;6120201;23;20080;-65
2023/12/15 10:25:23;;;;;;;3.00;1.98;;;10.40;98.20;;;;;;6120951;23;20005;-64
2023/12/15 10:27:49;;;;;;;3.55;1.65;;;10.50;98.20;;;;;;6119699;23;20006;-65
2023/12/15 10:30:16;;;;;;;4.57;1.77;;;10.50;98.30;;;;;;6118109;23;20006;-66
2023/12/15 10:32:46;;;;;;;2.85;1.67;;;10.50;98.20;;;;;;6120858;23;20085;-66
2023/12/15 10:35:12;;;;;;;4.80;2.42;;;10.60;98.20;;;;;;6120455;23;20002;-66
2023/12/15 10:37:38;;;;;;;4.40;2.40;;;10.60;98.20;;;;;;6118615;23;20056;-66
2023/12/15 10:40:05;;;;;;;3.70;2.47;;;10.60;98.10;;;;;;6118166;23;20010;-65
2023/12/15 10:42:31;;;;;;;4.18;2.30;;;10.60;98.00;;;;;;6119908;23;20009;-65
2023/12/15 10:45:03;;;;;;;3.05;1.98;;;10.60;98.10;;;;;;6120427;23;20009;-65
2023/12/15 10:47:30;;;;;;;4.28;2.50;;;10.60;98.40;;;;;;6120393;23;19998;-66
2023/12/15 10:49:57;;;;;;;5.20;2.15;;;10.60;98.10;;;;;;6120802;23;20077;-66
2023/12/15 10:52:24;;;;;;;4.72;2.40;;;10.60;98.10;;;;;;6120552;23;20010;-66
2023/12/15 10:54:51;;;;;;;4.22;2.28;;;10.60;98.10;;;;;;6120578;23;20002;-65
2023/12/15 10:57:18;;;;;;;4.47;2.00;;;10.60;98.10;;;;;;6120230;23;20021;-66
2023/12/15 10:59:45;;;;;;;3.28;1.83;;;10.70;98.20;;;;;;6119937;23;20001;-67
2023/12/15 11:02:12;;;;;;;6.80;2.53;;;10.70;98.10;;;;;;6120874;23;20028;-67
2023/12/15 11:04:39;;;;;;;4.57;2.28;;;10.70;98.00;;;;;;6095626;23;20013;-67
2023/12/15 11:07:05;;;;;;;5.38;2.40;;;10.70;98.00;;;;;;6122584;23;20072;-66
2023/12/15 11:09:35;;;;;;;4.45;1.90;;;10.70;97.90;;;;;;6122280;23;20002;-67
2023/12/15 11:12:20;;;;;;;2.22;1.58;;;10.70;97.90;;;;;;6122562;23;20013;-66
2023/12/15 11:14:53;;;;;;;3.47;1.83;;;10.80;98.00;;;;;;6122827;23;20057;-66
2023/12/15 11:17:20;;;;;;;2.97;2.38;;;10.80;97.90;;;;;;6122735;23;20010;-66
2023/12/15 11:19:50;;;;;;;2.50;1.58;;;10.80;97.90;;;;;;6095795;23;20176;-67
2023/12/15 11:22:17;;;;;;;2.85;1.60;;;10.80;98.00;;;;;;6122859;23;20001;-67
2023/12/15 11:24:43;;;;;;;3.65;1.77;;;10.80;97.90;;;;;;6122995;23;20014;-66
2023/12/15 11:27:12;;;;;;;4.43;1.85;;;10.80;97.90;;;;;;6122252;23;20850;-66
2023/12/15 11:29:37;;;;;;;2.95;1.80;;;10.80;97.90;;;;;;6120807;23;20092;-66
2023/12/15 11:32:27;;;;;;;3.83;2.00;;;10.80;97.90;;;;;;6122323;23;20596;-65
2023/12/15 11:34:52;;;;;;;4.32;2.35;;;10.80;97.90;;;;;;6095927;23;20338;-66
2023/12/15 11:37:19;;;;;;;6.97;2.33;;;10.80;97.80;;;;;;6122796;23;20081;-66
2023/12/15 11:39:49;;;;;;;3.85;2.40;;;10.80;97.90;;;;;;6121871;23;20045;-66
2023/12/15 11:42:15;;;;;;;5.05;2.05;;;10.80;97.90;;;;;;6122303;23;20539;-66
2023/12/15 11:44:43;;;;;;;4.70;1.75;;;10.80;97.90;;;;;;6121825;23;20032;-65
2023/12/15 11:47:09;;;;;;;3.70;2.10;;;10.90;97.90;;;;;;6122399;23;20469;-66
2023/12/15 11:49:39;;;;;;;3.05;1.70;;;11.00;97.80;;;;;;6120002;23;20002;-67
2023/12/15 11:52:10;;;;;;;2.58;1.77;;;11.00;97.70;;;;;;6120762;23;20002;-67
2023/12/15 11:54:36;;;;;;;3.58;1.80;;;11.10;97.60;;;;;;6121142;23;20008;-66
2023/12/15 11:57:01;;;;;;;6.03;1.70;;;11.00;97.50;;;;;;6121977;23;20006;-67
2023/12/15 11:59:39;;;;;;;2.97;1.80;;;11.10;97.50;;;;;;6121880;23;20059;-67
2023/12/15 12:02:06;;;;;;;3.45;1.88;;;11.10;97.40;;;;;;6095391;23;20033;-67
2023/12/15 12:04:31;;;;;;;3.78;1.48;;;11.10;97.40;;;;;;6121804;23;20002;-67
2023/12/15 12:06:58;;;;;;;3.08;1.70;;;11.10;97.40;;;;;;6121817;23;20443;-67
2023/12/15 12:09:24;;;;;;;3.67;1.80;;;11.10;97.40;;;;;;6121689;23;20025;-68
2023/12/15 12:11:51;;;;;;;2.85;1.30;;;11.10;97.40;;;;;;6091209;23;20006;-67
2023/12/15 12:14:16;;;;;;;2.70;1.50;;;11.10;97.40;;;;;;6120977;23;20009;-66
2023/12/15 12:16:48;;;;;;;3.05;1.80;;;11.20;97.40;;;;;;6120013;23;20033;-67
2023/12/15 12:19:14;;;;;;;3.80;1.80;;;11.20;97.30;;;;;;6121053;23;20008;-67
2023/12/15 12:21:39;;;;;;;3.70;1.70;;;11.20;97.20;;;;;;6120724;23;20006;-66
2023/12/15 12:24:06;;;;;;;3.13;1.50;;;11.30;97.20;;;;;;6121345;23;20065;-67
2023/12/15 12:26:32;;;;;;;3.15;1.42;;;11.30;97.10;;;;;;6122706;23;20053;-65
2023/12/15 12:28:57;;;;;;;3.58;1.40;;;11.30;96.90;;;;;;6119922;23;20013;-66
2023/12/15 12:31:24;;;;;;;2.00;1.30;;;11.30;96.90;;;;;;6116628;23;20010;-68
2023/12/15 12:33:50;;;;;;;2.50;1.40;;;11.30;97.10;;;;;;6119575;23;20425;-65
2023/12/15 12:36:17;;;;;;;5.45;1.80;;;11.20;97.00;;;;;;6120490;23;20335;-66
2023/12/15 12:38:44;;;;;;;3.40;1.55;;;11.20;97.00;;;;;;6120647;23;20059;-66
2023/12/15 12:41:12;;;;;;;4.13;1.98;;;11.20;97.10;;;;;;6095201;23;20034;-67
2023/12/15 12:43:38;;;;;;;2.38;1.60;;;11.20;97.00;;;;;;6121661;23;20002;-65
2023/12/15 12:46:04;;;;;;;5.57;1.40;;;11.20;97.00;;;;;;6121150;23;20025;-66
2023/12/15 12:48:30;;;;;;;3.47;1.50;;;11.20;96.90;;;;;;6121333;23;20003;-66
2023/12/15 12:50:55;;;;;;;3.47;1.55;;;11.20;96.90;;;;;;6095511;23;20435;-66